Andrews, TX

2:21 AM CDT on March 26, 2017 (GMT -0500)
Andrews | | Change Station
Active Advisory: Fire Weather Watch

Elev 3173 ft 32.33 °N, 102.53 °W | Updated 6 minutes ago

Clear
Clear
54 °F
Feels Like 54 °F
N
7
Wind Variable Wind from South

Today
High -- | Low -- °F
--% Chance of Precip.
Yesterday
High -- | Low -- °F
Precip. -- in
Pressure 29.83 in
Visibility 10.0 miles
Clouds Clear
Dew Point 28 °F
Humidity 38%
Rainfall 0.00 in
Snow Depth Not available.
7:45 AM 8:06 PM
Waning Crescent, 4% visible
METAR KE11 260715Z AUTO 18006KT 10SM CLR 12/M02 A2983 RMK AO2 T01211020
Pressure 29.83 in
Visibility 10.0 miles
Clouds Clear
Dew Point 28 °F
Humidity 38%
Rainfall 0.00 in
Snow Depth Not available.
7:45 AM 8:06 PM
Waning Crescent, 4% visible
METAR KE11 260715Z AUTO 18006KT 10SM CLR 12/M02 A2983 RMK AO2 T01211020

Get Your Daily Forecast Email!

Thanks for signing up!

Be on the lookout for a verification email in your inbox.

You'll start receiving severe weather alerts in your inbox..

×

10-Day Weather Forecast

Almanac

Astronomy

Mar. 26, 2017 Rise Set
Actual Time
Civil Twilight
Nautical Twilight
Astronomical Twilight
Moon
Length of Visible Light
Length of Day
Tomorrow will be .
, % of the Moon is Illuminated

Today's Extremes

State Highs State Lows

Community

WunderPhotos

Upload Photos

1,962,540 photos uploaded!

WunderBlog® & News

Nearby

Air Quality

  Air Quality AQ Index Pollutant
Not available.

Snow Depth

Station Depth Elevation

Earthquake Activity

City Distance Mag. Time & Date
Minimum magnitude displayed is 2.5.

Earthquake Activity

City Distance Mag. Time & Date
Minimum magnitude displayed is 2.5.

Coastal Water Temperatures

Place Temperature

Stations

Nearby Weather Stations

Station Location Temp. Windchill Dew Point Humidity Wind Precip. Elev Updated Type
                   

Watches & Warnings

Fire Weather Watch
Issued: 2:08 PM CDT Mar. 25, 2017 – National Weather Service

... Fire Weather Watch in effect from Sunday afternoon through
early Sunday evening for relative humidity of 15% or less, 20
foot winds of 20 mph or more, and high to extreme fire danger...

* humidity... 9 to 15%.

* Wind... mountains... west 25 to 35 mph with higher gusts in the afternoon.
Plains... west 20 to 30 mph with higher gusts.

* Impacts... any fires that develop will likely spread rapidly.
Outdoor burning is not recommended.

Precautionary/preparedness actions...

A Fire Weather Watch means that critical fire weather conditions
are forecast to occur. Listen for later forecasts and possible
red flag warnings.